sensor_id;sensor_type;location;lat;lon;timestamp;P1;durP1;ratioP1;P2;durP2;ratioP2
6376;SDS011;3221;48.858;10.128;2023-11-21T00:02:21;3.77;;;2.10;;
6376;SDS011;3221;48.858;10.128;2023-11-21T00:04:49;3.80;;;1.93;;
6376;SDS011;3221;48.858;10.128;2023-11-21T00:07:16;3.83;;;2.20;;
6376;SDS011;3221;48.858;10.128;2023-11-21T00:09:43;5.20;;;2.73;;
6376;SDS011;3221;48.858;10.128;2023-11-21T00:12:10;5.73;;;2.50;;
6376;SDS011;3221;48.858;10.128;2023-11-21T00:14:38;3.43;;;2.63;;
6376;SDS011;3221;48.858;10.128;2023-11-21T00:17:06;4.43;;;2.67;;
6376;SDS011;3221;48.858;10.128;2023-11-21T00:19:33;5.17;;;2.50;;
6376;SDS011;3221;48.858;10.128;2023-11-21T00:22:01;2.97;;;2.17;;
6376;SDS011;3221;48.858;10.128;2023-11-21T00:24:28;3.07;;;1.90;;
6376;SDS011;3221;48.858;10.128;2023-11-21T00:26:55;2.40;;;1.53;;
6376;SDS011;3221;48.858;10.128;2023-11-21T00:29:22;1.47;;;1.33;;
6376;SDS011;3221;48.858;10.128;2023-11-21T00:31:50;1.20;;;1.10;;
6376;SDS011;3221;48.858;10.128;2023-11-21T00:34:17;1.77;;;1.30;;
6376;SDS011;3221;48.858;10.128;2023-11-21T00:36:44;2.00;;;1.20;;
6376;SDS011;3221;48.858;10.128;2023-11-21T00:39:11;1.87;;;1.20;;
6376;SDS011;3221;48.858;10.128;2023-11-21T00:41:39;2.07;;;1.17;;
6376;SDS011;3221;48.858;10.128;2023-11-21T00:44:06;2.50;;;1.40;;
6376;SDS011;3221;48.858;10.128;2023-11-21T00:46:33;1.50;;;1.03;;
6376;SDS011;3221;48.858;10.128;2023-11-21T00:49:00;1.50;;;1.10;;
6376;SDS011;3221;48.858;10.128;2023-11-21T00:51:27;1.93;;;1.40;;
6376;SDS011;3221;48.858;10.128;2023-11-21T00:53:54;1.90;;;1.20;;
6376;SDS011;3221;48.858;10.128;2023-11-21T00:56:21;1.73;;;1.10;;
6376;SDS011;3221;48.858;10.128;2023-11-21T00:58:48;1.30;;;1.20;;
6376;SDS011;3221;48.858;10.128;2023-11-21T01:01:18;2.13;;;1.00;;
6376;SDS011;3221;48.858;10.128;2023-11-21T01:03:48;1.70;;;1.40;;
6376;SDS011;3221;48.858;10.128;2023-11-21T01:06:15;1.40;;;1.00;;
6376;SDS011;3221;48.858;10.128;2023-11-21T01:08:43;1.13;;;1.03;;
6376;SDS011;3221;48.858;10.128;2023-11-21T01:11:11;1.70;;;0.93;;
6376;SDS011;3221;48.858;10.128;2023-11-21T01:13:39;1.07;;;0.97;;
6376;SDS011;3221;48.858;10.128;2023-11-21T01:16:06;2.13;;;1.10;;
6376;SDS011;3221;48.858;10.128;2023-11-21T01:18:37;2.17;;;1.03;;
6376;SDS011;3221;48.858;10.128;2023-11-21T01:21:05;0.90;;;0.90;;
6376;SDS011;3221;48.858;10.128;2023-11-21T01:23:32;1.37;;;0.90;;
6376;SDS011;3221;48.858;10.128;2023-11-21T01:25:59;2.17;;;1.03;;
6376;SDS011;3221;48.858;10.128;2023-11-21T01:28:26;1.23;;;0.90;;
6376;SDS011;3221;48.858;10.128;2023-11-21T01:30:53;3.23;;;1.30;;
6376;SDS011;3221;48.858;10.128;2023-11-21T01:33:23;2.90;;;1.40;;
6376;SDS011;3221;48.858;10.128;2023-11-21T01:35:51;2.00;;;1.20;;
6376;SDS011;3221;48.858;10.128;2023-11-21T01:38:21;1.87;;;1.20;;
6376;SDS011;3221;48.858;10.128;2023-11-21T01:40:48;1.40;;;1.30;;
6376;SDS011;3221;48.858;10.128;2023-11-21T01:43:15;3.73;;;1.23;;
6376;SDS011;3221;48.858;10.128;2023-11-21T01:45:43;2.43;;;1.40;;
6376;SDS011;3221;48.858;10.128;2023-11-21T01:48:11;2.67;;;1.30;;
6376;SDS011;3221;48.858;10.128;2023-11-21T01:50:40;1.93;;;1.27;;
6376;SDS011;3221;48.858;10.128;2023-11-21T01:53:08;2.90;;;1.30;;
6376;SDS011;3221;48.858;10.128;2023-11-21T01:55:37;3.63;;;1.67;;
6376;SDS011;3221;48.858;10.128;2023-11-21T01:58:05;2.73;;;1.50;;
6376;SDS011;3221;48.858;10.128;2023-11-21T02:00:33;2.87;;;1.70;;
6376;SDS011;3221;48.858;10.128;2023-11-21T02:03:01;7.53;;;1.70;;
6376;SDS011;3221;48.858;10.128;2023-11-21T02:05:29;3.50;;;1.63;;
6376;SDS011;3221;48.858;10.128;2023-11-21T02:07:57;3.00;;;1.73;;
6376;SDS011;3221;48.858;10.128;2023-11-21T02:10:25;3.27;;;2.00;;
6376;SDS011;3221;48.858;10.128;2023-11-21T02:12:52;3.60;;;1.50;;
6376;SDS011;3221;48.858;10.128;2023-11-21T02:15:20;2.63;;;1.70;;
6376;SDS011;3221;48.858;10.128;2023-11-21T02:17:48;3.30;;;1.93;;
6376;SDS011;3221;48.858;10.128;2023-11-21T02:20:21;4.13;;;2.00;;
6376;SDS011;3221;48.858;10.128;2023-11-21T02:22:55;3.37;;;1.93;;
6376;SDS011;3221;48.858;10.128;2023-11-21T02:25:30;2.17;;;1.70;;
6376;SDS011;3221;48.858;10.128;2023-11-21T02:27:59;2.40;;;2.20;;
6376;SDS011;3221;48.858;10.128;2023-11-21T02:30:29;2.27;;;1.70;;
6376;SDS011;3221;48.858;10.128;2023-11-21T02:33:00;2.40;;;1.97;;
6376;SDS011;3221;48.858;10.128;2023-11-21T02:35:27;4.40;;;2.60;;
6376;SDS011;3221;48.858;10.128;2023-11-21T02:37:54;4.07;;;2.27;;
6376;SDS011;3221;48.858;10.128;2023-11-21T02:40:23;4.47;;;2.17;;
6376;SDS011;3221;48.858;10.128;2023-11-21T02:42:52;2.60;;;2.00;;
6376;SDS011;3221;48.858;10.128;2023-11-21T02:45:19;3.43;;;1.80;;
6376;SDS011;3221;48.858;10.128;2023-11-21T02:47:48;2.37;;;1.90;;
6376;SDS011;3221;48.858;10.128;2023-11-21T02:50:19;3.00;;;1.80;;
6376;SDS011;3221;48.858;10.128;2023-11-21T02:52:46;2.97;;;1.80;;
6376;SDS011;3221;48.858;10.128;2023-11-21T02:55:14;3.43;;;1.80;;
6376;SDS011;3221;48.858;10.128;2023-11-21T02:57:41;2.87;;;1.47;;
6376;SDS011;3221;48.858;10.128;2023-11-21T03:00:08;2.07;;;1.73;;
6376;SDS011;3221;48.858;10.128;2023-11-21T03:02:41;3.83;;;2.10;;
6376;SDS011;3221;48.858;10.128;2023-11-21T03:05:09;3.00;;;1.80;;
6376;SDS011;3221;48.858;10.128;2023-11-21T03:07:37;3.17;;;1.77;;
6376;SDS011;3221;48.858;10.128;2023-11-21T03:10:05;2.47;;;2.00;;
6376;SDS011;3221;48.858;10.128;2023-11-21T03:12:38;3.70;;;2.37;;
6376;SDS011;3221;48.858;10.128;2023-11-21T03:15:06;2.20;;;1.80;;
6376;SDS011;3221;48.858;10.128;2023-11-21T03:17:34;3.53;;;2.10;;
6376;SDS011;3221;48.858;10.128;2023-11-21T03:20:03;3.20;;;1.97;;
6376;SDS011;3221;48.858;10.128;2023-11-21T03:22:31;1.80;;;1.70;;
6376;SDS011;3221;48.858;10.128;2023-11-21T03:24:58;2.90;;;2.00;;
6376;SDS011;3221;48.858;10.128;2023-11-21T03:27:26;2.00;;;1.80;;
6376;SDS011;3221;48.858;10.128;2023-11-21T03:29:53;2.13;;;1.90;;
6376;SDS011;3221;48.858;10.128;2023-11-21T03:32:21;3.40;;;1.87;;
6376;SDS011;3221;48.858;10.128;2023-11-21T03:34:55;2.87;;;2.10;;
6376;SDS011;3221;48.858;10.128;2023-11-21T03:37:25;2.03;;;1.87;;
6376;SDS011;3221;48.858;10.128;2023-11-21T03:39:54;2.07;;;1.63;;
6376;SDS011;3221;48.858;10.128;2023-11-21T03:42:22;3.43;;;1.90;;
6376;SDS011;3221;48.858;10.128;2023-11-21T03:44:50;4.00;;;1.80;;
6376;SDS011;3221;48.858;10.128;2023-11-21T03:47:17;2.90;;;1.80;;
6376;SDS011;3221;48.858;10.128;2023-11-21T03:49:45;2.47;;;1.90;;
6376;SDS011;3221;48.858;10.128;2023-11-21T03:52:15;1.83;;;1.60;;
6376;SDS011;3221;48.858;10.128;2023-11-21T03:54:42;3.40;;;2.10;;
6376;SDS011;3221;48.858;10.128;2023-11-21T03:57:10;3.40;;;1.60;;
6376;SDS011;3221;48.858;10.128;2023-11-21T03:59:41;3.07;;;1.80;;
6376;SDS011;3221;48.858;10.128;2023-11-21T04:02:09;3.83;;;2.00;;
6376;SDS011;3221;48.858;10.128;2023-11-21T04:04:36;3.10;;;2.10;;
6376;SDS011;3221;48.858;10.128;2023-11-21T04:07:03;2.50;;;2.00;;
6376;SDS011;3221;48.858;10.128;2023-11-21T04:09:30;2.90;;;1.90;;
6376;SDS011;3221;48.858;10.128;2023-11-21T04:11:57;3.00;;;1.80;;
6376;SDS011;3221;48.858;10.128;2023-11-21T04:14:24;2.63;;;1.80;;
6376;SDS011;3221;48.858;10.128;2023-11-21T04:16:51;3.23;;;2.10;;
6376;SDS011;3221;48.858;10.128;2023-11-21T04:19:20;2.77;;;1.60;;
6376;SDS011;3221;48.858;10.128;2023-11-21T04:21:47;3.53;;;1.80;;
6376;SDS011;3221;48.858;10.128;2023-11-21T04:24:14;1.70;;;1.60;;
6376;SDS011;3221;48.858;10.128;2023-11-21T04:26:40;2.30;;;1.60;;
6376;SDS011;3221;48.858;10.128;2023-11-21T04:29:08;1.87;;;1.60;;
6376;SDS011;3221;48.858;10.128;2023-11-21T04:31:35;2.57;;;1.60;;
6376;SDS011;3221;48.858;10.128;2023-11-21T04:34:01;3.00;;;2.00;;
6376;SDS011;3221;48.858;10.128;2023-11-21T04:36:30;2.60;;;1.90;;
6376;SDS011;3221;48.858;10.128;2023-11-21T04:38:57;1.60;;;1.50;;
6376;SDS011;3221;48.858;10.128;2023-11-21T04:41:24;2.80;;;1.80;;
6376;SDS011;3221;48.858;10.128;2023-11-21T04:43:51;2.50;;;1.50;;
6376;SDS011;3221;48.858;10.128;2023-11-21T04:46:18;2.90;;;1.50;;
6376;SDS011;3221;48.858;10.128;2023-11-21T04:48:45;2.00;;;1.63;;
6376;SDS011;3221;48.858;10.128;2023-11-21T04:51:13;2.37;;;1.43;;
6376;SDS011;3221;48.858;10.128;2023-11-21T04:53:40;2.40;;;1.60;;
6376;SDS011;3221;48.858;10.128;2023-11-21T04:56:07;3.10;;;1.70;;
6376;SDS011;3221;48.858;10.128;2023-11-21T04:58:34;3.10;;;1.43;;
6376;SDS011;3221;48.858;10.128;2023-11-21T05:01:01;1.83;;;1.50;;
6376;SDS011;3221;48.858;10.128;2023-11-21T05:03:33;2.37;;;1.80;;
6376;SDS011;3221;48.858;10.128;2023-11-21T05:06:01;2.30;;;1.57;;
6376;SDS011;3221;48.858;10.128;2023-11-21T05:08:28;1.50;;;1.40;;
6376;SDS011;3221;48.858;10.128;2023-11-21T05:10:55;3.63;;;1.80;;
6376;SDS011;3221;48.858;10.128;2023-11-21T05:13:22;2.40;;;1.93;;
6376;SDS011;3221;48.858;10.128;2023-11-21T05:15:56;2.13;;;1.90;;
6376;SDS011;3221;48.858;10.128;2023-11-21T05:18:23;2.50;;;1.50;;
6376;SDS011;3221;48.858;10.128;2023-11-21T05:20:53;3.67;;;2.20;;
6376;SDS011;3221;48.858;10.128;2023-11-21T05:23:20;2.43;;;1.90;;
6376;SDS011;3221;48.858;10.128;2023-11-21T05:25:47;2.87;;;1.90;;
6376;SDS011;3221;48.858;10.128;2023-11-21T05:28:14;2.97;;;1.90;;
6376;SDS011;3221;48.858;10.128;2023-11-21T05:30:41;3.83;;;1.80;;
6376;SDS011;3221;48.858;10.128;2023-11-21T05:33:08;1.87;;;1.63;;
6376;SDS011;3221;48.858;10.128;2023-11-21T05:35:35;2.00;;;1.50;;
6376;SDS011;3221;48.858;10.128;2023-11-21T05:38:02;2.93;;;1.70;;
6376;SDS011;3221;48.858;10.128;2023-11-21T05:40:29;2.80;;;1.87;;
6376;SDS011;3221;48.858;10.128;2023-11-21T05:42:56;1.80;;;1.70;;
6376;SDS011;3221;48.858;10.128;2023-11-21T05:45:23;1.90;;;1.70;;
6376;SDS011;3221;48.858;10.128;2023-11-21T05:47:50;3.13;;;1.87;;
6376;SDS011;3221;48.858;10.128;2023-11-21T05:50:17;2.03;;;1.83;;
6376;SDS011;3221;48.858;10.128;2023-11-21T05:52:45;2.17;;;1.80;;
6376;SDS011;3221;48.858;10.128;2023-11-21T05:55:13;1.77;;;1.67;;
6376;SDS011;3221;48.858;10.128;2023-11-21T05:57:41;2.93;;;1.80;;
6376;SDS011;3221;48.858;10.128;2023-11-21T06:00:09;3.37;;;2.20;;
6376;SDS011;3221;48.858;10.128;2023-11-21T06:02:52;2.43;;;2.03;;
6376;SDS011;3221;48.858;10.128;2023-11-21T06:05:21;2.37;;;2.10;;
6376;SDS011;3221;48.858;10.128;2023-11-21T06:07:50;3.23;;;2.17;;
6376;SDS011;3221;48.858;10.128;2023-11-21T06:10:21;2.37;;;2.13;;
6376;SDS011;3221;48.858;10.128;2023-11-21T06:12:51;4.13;;;2.70;;
6376;SDS011;3221;48.858;10.128;2023-11-21T06:15:18;2.60;;;2.13;;
6376;SDS011;3221;48.858;10.128;2023-11-21T06:17:47;2.97;;;2.13;;
6376;SDS011;3221;48.858;10.128;2023-11-21T06:20:18;4.53;;;2.47;;
6376;SDS011;3221;48.858;10.128;2023-11-21T06:22:46;4.00;;;2.47;;
6376;SDS011;3221;48.858;10.128;2023-11-21T06:25:14;2.60;;;2.00;;
6376;SDS011;3221;48.858;10.128;2023-11-21T06:27:45;3.50;;;2.27;;
6376;SDS011;3221;48.858;10.128;2023-11-21T06:30:17;3.30;;;2.30;;
6376;SDS011;3221;48.858;10.128;2023-11-21T06:32:46;2.93;;;2.60;;
6376;SDS011;3221;48.858;10.128;2023-11-21T06:35:14;3.60;;;2.50;;
6376;SDS011;3221;48.858;10.128;2023-11-21T06:37:43;2.70;;;2.50;;
6376;SDS011;3221;48.858;10.128;2023-11-21T06:40:16;3.40;;;2.60;;
6376;SDS011;3221;48.858;10.128;2023-11-21T06:42:45;3.37;;;2.60;;
6376;SDS011;3221;48.858;10.128;2023-11-21T06:45:14;3.03;;;2.67;;
6376;SDS011;3221;48.858;10.128;2023-11-21T06:47:42;2.93;;;2.63;;
6376;SDS011;3221;48.858;10.128;2023-11-21T06:50:10;3.37;;;2.90;;
6376;SDS011;3221;48.858;10.128;2023-11-21T06:52:37;3.33;;;3.00;;
6376;SDS011;3221;48.858;10.128;2023-11-21T06:55:05;4.80;;;3.10;;
6376;SDS011;3221;48.858;10.128;2023-11-21T06:57:34;3.33;;;3.00;;
6376;SDS011;3221;48.858;10.128;2023-11-21T07:00:01;4.43;;;3.00;;
6376;SDS011;3221;48.858;10.128;2023-11-21T07:02:29;4.37;;;3.40;;
6376;SDS011;3221;48.858;10.128;2023-11-21T07:04:56;3.80;;;3.40;;
6376;SDS011;3221;48.858;10.128;2023-11-21T07:07:22;3.40;;;3.10;;
6376;SDS011;3221;48.858;10.128;2023-11-21T07:09:50;3.97;;;2.77;;
6376;SDS011;3221;48.858;10.128;2023-11-21T07:12:19;3.17;;;2.87;;
6376;SDS011;3221;48.858;10.128;2023-11-21T07:14:45;3.60;;;3.13;;
6376;SDS011;3221;48.858;10.128;2023-11-21T07:17:12;3.67;;;3.00;;
6376;SDS011;3221;48.858;10.128;2023-11-21T07:19:39;3.60;;;2.90;;
6376;SDS011;3221;48.858;10.128;2023-11-21T07:22:08;3.83;;;2.73;;
6376;SDS011;3221;48.858;10.128;2023-11-21T07:24:35;2.97;;;2.67;;
6376;SDS011;3221;48.858;10.128;2023-11-21T07:27:03;5.70;;;2.83;;
6376;SDS011;3221;48.858;10.128;2023-11-21T07:29:30;3.03;;;2.67;;
6376;SDS011;3221;48.858;10.128;2023-11-21T07:31:57;4.73;;;3.10;;
6376;SDS011;3221;48.858;10.128;2023-11-21T07:34:25;3.47;;;3.17;;
6376;SDS011;3221;48.858;10.128;2023-11-21T07:36:52;4.30;;;3.27;;
6376;SDS011;3221;48.858;10.128;2023-11-21T07:39:18;6.27;;;3.63;;
6376;SDS011;3221;48.858;10.128;2023-11-21T07:41:45;5.13;;;4.03;;
6376;SDS011;3221;48.858;10.128;2023-11-21T07:44:16;4.57;;;3.80;;
6376;SDS011;3221;48.858;10.128;2023-11-21T07:46:44;5.37;;;4.27;;
6376;SDS011;3221;48.858;10.128;2023-11-21T07:49:11;5.97;;;4.17;;
6376;SDS011;3221;48.858;10.128;2023-11-21T07:51:42;4.13;;;3.67;;
6376;SDS011;3221;48.858;10.128;2023-11-21T07:54:10;4.37;;;3.90;;
6376;SDS011;3221;48.858;10.128;2023-11-21T07:56:37;3.87;;;3.53;;
6376;SDS011;3221;48.858;10.128;2023-11-21T07:59:04;3.90;;;3.50;;
6376;SDS011;3221;48.858;10.128;2023-11-21T08:01:31;4.57;;;3.50;;
6376;SDS011;3221;48.858;10.128;2023-11-21T08:03:58;4.63;;;3.30;;
6376;SDS011;3221;48.858;10.128;2023-11-21T08:06:30;4.77;;;3.13;;
6376;SDS011;3221;48.858;10.128;2023-11-21T08:08:57;3.03;;;2.73;;
6376;SDS011;3221;48.858;10.128;2023-11-21T08:11:24;3.50;;;3.20;;
6376;SDS011;3221;48.858;10.128;2023-11-21T08:13:52;3.37;;;3.03;;
6376;SDS011;3221;48.858;10.128;2023-11-21T08:16:20;4.17;;;2.90;;
6376;SDS011;3221;48.858;10.128;2023-11-21T08:18:47;3.40;;;3.10;;
6376;SDS011;3221;48.858;10.128;2023-11-21T08:21:14;3.10;;;2.63;;
6376;SDS011;3221;48.858;10.128;2023-11-21T08:23:41;4.30;;;3.00;;
6376;SDS011;3221;48.858;10.128;2023-11-21T08:26:08;4.50;;;3.07;;
6376;SDS011;3221;48.858;10.128;2023-11-21T08:28:35;4.80;;;3.90;;
6376;SDS011;3221;48.858;10.128;2023-11-21T08:31:02;3.80;;;3.40;;
6376;SDS011;3221;48.858;10.128;2023-11-21T08:33:30;4.97;;;4.43;;
6376;SDS011;3221;48.858;10.128;2023-11-21T08:35:57;4.40;;;4.00;;
6376;SDS011;3221;48.858;10.128;2023-11-21T08:38:24;5.00;;;4.50;;
6376;SDS011;3221;48.858;10.128;2023-11-21T08:40:51;6.37;;;4.50;;
6376;SDS011;3221;48.858;10.128;2023-11-21T08:43:18;6.60;;;4.33;;
6376;SDS011;3221;48.858;10.128;2023-11-21T08:45:46;4.67;;;4.10;;
6376;SDS011;3221;48.858;10.128;2023-11-21T08:48:13;4.50;;;4.00;;
6376;SDS011;3221;48.858;10.128;2023-11-21T08:50:40;4.47;;;4.07;;
6376;SDS011;3221;48.858;10.128;2023-11-21T08:53:07;4.67;;;4.00;;
6376;SDS011;3221;48.858;10.128;2023-11-21T08:55:34;4.07;;;3.43;;
6376;SDS011;3221;48.858;10.128;2023-11-21T08:58:04;3.93;;;3.57;;
6376;SDS011;3221;48.858;10.128;2023-11-21T09:00:32;4.23;;;3.57;;
6376;SDS011;3221;48.858;10.128;2023-11-21T09:03:00;4.37;;;3.60;;
6376;SDS011;3221;48.858;10.128;2023-11-21T09:05:29;4.43;;;3.60;;
6376;SDS011;3221;48.858;10.128;2023-11-21T09:07:56;3.97;;;3.50;;
6376;SDS011;3221;48.858;10.128;2023-11-21T09:10:23;4.13;;;3.67;;
6376;SDS011;3221;48.858;10.128;2023-11-21T09:12:52;5.63;;;4.50;;
6376;SDS011;3221;48.858;10.128;2023-11-21T09:15:18;4.43;;;3.70;;
6376;SDS011;3221;48.858;10.128;2023-11-21T09:17:47;3.93;;;3.53;;
6376;SDS011;3221;48.858;10.128;2023-11-21T09:20:14;4.37;;;3.40;;
6376;SDS011;3221;48.858;10.128;2023-11-21T09:22:42;4.00;;;3.30;;
6376;SDS011;3221;48.858;10.128;2023-11-21T09:25:11;3.47;;;2.97;;
6376;SDS011;3221;48.858;10.128;2023-11-21T09:27:39;5.13;;;3.83;;
6376;SDS011;3221;48.858;10.128;2023-11-21T09:30:07;3.60;;;3.30;;
6376;SDS011;3221;48.858;10.128;2023-11-21T09:32:37;3.63;;;3.10;;
6376;SDS011;3221;48.858;10.128;2023-11-21T09:35:05;3.73;;;3.00;;
6376;SDS011;3221;48.858;10.128;2023-11-21T09:37:34;3.40;;;3.10;;
6376;SDS011;3221;48.858;10.128;2023-11-21T09:40:04;4.63;;;3.37;;
6376;SDS011;3221;48.858;10.128;2023-11-21T09:42:40;3.40;;;3.10;;
6376;SDS011;3221;48.858;10.128;2023-11-21T09:45:35;3.30;;;3.00;;
6376;SDS011;3221;48.858;10.128;2023-11-21T09:48:02;3.30;;;2.57;;
6376;SDS011;3221;48.858;10.128;2023-11-21T09:50:29;3.77;;;3.13;;
6376;SDS011;3221;48.858;10.128;2023-11-21T09:53:18;2.93;;;2.73;;
6376;SDS011;3221;48.858;10.128;2023-11-21T09:55:49;3.47;;;2.60;;
6376;SDS011;3221;48.858;10.128;2023-11-21T09:58:17;2.57;;;2.37;;
6376;SDS011;3221;48.858;10.128;2023-11-21T10:00:46;3.43;;;2.70;;
6376;SDS011;3221;48.858;10.128;2023-11-21T10:03:14;2.87;;;2.53;;
6376;SDS011;3221;48.858;10.128;2023-11-21T10:05:42;3.27;;;2.80;;
6376;SDS011;3221;48.858;10.128;2023-11-21T10:08:12;3.50;;;2.70;;
6376;SDS011;3221;48.858;10.128;2023-11-21T10:10:42;4.73;;;3.50;;
6376;SDS011;3221;48.858;10.128;2023-11-21T10:13:14;4.53;;;3.00;;
6376;SDS011;3221;48.858;10.128;2023-11-21T10:15:46;5.07;;;3.37;;
6376;SDS011;3221;48.858;10.128;2023-11-21T10:18:16;4.50;;;2.80;;
6376;SDS011;3221;48.858;10.128;2023-11-21T10:20:44;3.00;;;2.50;;
6376;SDS011;3221;48.858;10.128;2023-11-21T10:23:21;2.90;;;2.60;;
6376;SDS011;3221;48.858;10.128;2023-11-21T10:25:50;2.93;;;2.60;;
6376;SDS011;3221;48.858;10.128;2023-11-21T10:28:19;3.63;;;2.40;;
6376;SDS011;3221;48.858;10.128;2023-11-21T10:30:47;2.80;;;2.60;;
6376;SDS011;3221;48.858;10.128;2023-11-21T10:33:14;2.60;;;2.40;;
6376;SDS011;3221;48.858;10.128;2023-11-21T10:38:18;3.17;;;2.80;;
6376;SDS011;3221;48.858;10.128;2023-11-21T10:40:47;2.80;;;2.53;;
6376;SDS011;3221;48.858;10.128;2023-11-21T10:43:15;2.97;;;2.67;;
6376;SDS011;3221;48.858;10.128;2023-11-21T10:45:44;3.00;;;2.40;;
6376;SDS011;3221;48.858;10.128;2023-11-21T10:48:14;2.73;;;2.53;;
6376;SDS011;3221;48.858;10.128;2023-11-21T10:50:42;2.90;;;2.70;;
6376;SDS011;3221;48.858;10.128;2023-11-21T10:53:11;2.67;;;2.43;;
6376;SDS011;3221;48.858;10.128;2023-11-21T10:55:39;3.40;;;3.10;;
6376;SDS011;3221;48.858;10.128;2023-11-21T10:58:06;3.60;;;3.00;;
6376;SDS011;3221;48.858;10.128;2023-11-21T11:00:33;4.07;;;3.50;;
6376;SDS011;3221;48.858;10.128;2023-11-21T11:03:01;3.47;;;3.03;;
6376;SDS011;3221;48.858;10.128;2023-11-21T11:05:29;3.50;;;3.10;;
6376;SDS011;3221;48.858;10.128;2023-11-21T11:07:59;4.60;;;3.23;;
6376;SDS011;3221;48.858;10.128;2023-11-21T11:10:30;3.20;;;2.80;;
6376;SDS011;3221;48.858;10.128;2023-11-21T11:12:58;3.47;;;2.97;;
6376;SDS011;3221;48.858;10.128;2023-11-21T11:15:25;3.97;;;3.07;;
6376;SDS011;3221;48.858;10.128;2023-11-21T11:17:54;4.50;;;3.40;;
6376;SDS011;3221;48.858;10.128;2023-11-21T11:20:27;3.60;;;3.23;;
6376;SDS011;3221;48.858;10.128;2023-11-21T11:31:46;4.73;;;3.70;;
6376;SDS011;3221;48.858;10.128;2023-11-21T11:37:18;3.60;;;3.30;;
6376;SDS011;3221;48.858;10.128;2023-11-21T11:39:45;4.60;;;3.27;;
6376;SDS011;3221;48.858;10.128;2023-11-21T11:42:13;4.23;;;3.20;;
6376;SDS011;3221;48.858;10.128;2023-11-21T11:47:16;3.10;;;2.80;;
6376;SDS011;3221;48.858;10.128;2023-11-21T11:50:01;3.57;;;3.27;;
6376;SDS011;3221;48.858;10.128;2023-11-21T11:52:40;3.50;;;3.20;;
6376;SDS011;3221;48.858;10.128;2023-11-21T11:55:12;3.63;;;3.30;;
6376;SDS011;3221;48.858;10.128;2023-11-21T11:57:42;3.30;;;3.00;;
6376;SDS011;3221;48.858;10.128;2023-11-21T12:02:45;3.13;;;2.83;;
6376;SDS011;3221;48.858;10.128;2023-11-21T12:05:16;2.67;;;2.47;;
6376;SDS011;3221;48.858;10.128;2023-11-21T12:07:45;2.80;;;2.53;;
6376;SDS011;3221;48.858;10.128;2023-11-21T12:10:21;3.00;;;2.80;;
6376;SDS011;3221;48.858;10.128;2023-11-21T12:12:52;4.13;;;2.60;;
6376;SDS011;3221;48.858;10.128;2023-11-21T12:15:19;3.70;;;3.20;;
6376;SDS011;3221;48.858;10.128;2023-11-21T12:17:48;3.47;;;3.10;;
6376;SDS011;3221;48.858;10.128;2023-11-21T12:20:18;3.83;;;3.43;;
6376;SDS011;3221;48.858;10.128;2023-11-21T12:22:47;3.57;;;2.90;;
6376;SDS011;3221;48.858;10.128;2023-11-21T12:25:18;3.00;;;2.70;;
6376;SDS011;3221;48.858;10.128;2023-11-21T12:27:48;2.53;;;2.33;;
6376;SDS011;3221;48.858;10.128;2023-11-21T12:30:20;2.57;;;2.37;;
6376;SDS011;3221;48.858;10.128;2023-11-21T12:32:51;2.80;;;2.60;;
6376;SDS011;3221;48.858;10.128;2023-11-21T12:35:21;3.00;;;2.70;;
6376;SDS011;3221;48.858;10.128;2023-11-21T12:37:49;3.13;;;2.83;;
6376;SDS011;3221;48.858;10.128;2023-11-21T12:40:17;3.40;;;3.10;;
6376;SDS011;3221;48.858;10.128;2023-11-21T12:42:45;3.03;;;2.80;;
6376;SDS011;3221;48.858;10.128;2023-11-21T12:45:21;2.80;;;2.60;;
6376;SDS011;3221;48.858;10.128;2023-11-21T12:50:29;2.93;;;2.60;;
6376;SDS011;3221;48.858;10.128;2023-11-21T12:53:01;2.50;;;2.30;;
6376;SDS011;3221;48.858;10.128;2023-11-21T12:55:35;2.33;;;2.20;;
6376;SDS011;3221;48.858;10.128;2023-11-21T12:58:06;2.60;;;2.20;;
6376;SDS011;3221;48.858;10.128;2023-11-21T13:00:40;2.20;;;2.10;;
6376;SDS011;3221;48.858;10.128;2023-11-21T13:03:17;2.40;;;2.20;;
6376;SDS011;3221;48.858;10.128;2023-11-21T13:05:52;2.13;;;1.93;;
6376;SDS011;3221;48.858;10.128;2023-11-21T13:08:24;1.77;;;1.67;;
6376;SDS011;3221;48.858;10.128;2023-11-21T13:10:55;1.40;;;1.30;;
6376;SDS011;3221;48.858;10.128;2023-11-21T13:13:24;1.00;;;1.00;;
6376;SDS011;3221;48.858;10.128;2023-11-21T13:15:55;1.00;;;1.00;;
6376;SDS011;3221;48.858;10.128;2023-11-21T13:18:24;1.10;;;1.10;;
6376;SDS011;3221;48.858;10.128;2023-11-21T13:20:53;0.90;;;0.90;;
6376;SDS011;3221;48.858;10.128;2023-11-21T13:23:22;0.70;;;0.70;;
6376;SDS011;3221;48.858;10.128;2023-11-21T13:25:50;0.77;;;0.73;;
6376;SDS011;3221;48.858;10.128;2023-11-21T13:28:28;0.90;;;0.90;;
6376;SDS011;3221;48.858;10.128;2023-11-21T13:30:59;1.47;;;0.90;;
6376;SDS011;3221;48.858;10.128;2023-11-21T13:33:29;0.63;;;0.63;;
6376;SDS011;3221;48.858;10.128;2023-11-21T13:35:59;0.73;;;0.73;;
6376;SDS011;3221;48.858;10.128;2023-11-21T13:38:27;0.60;;;0.60;;
6376;SDS011;3221;48.858;10.128;2023-11-21T13:40:59;1.50;;;0.60;;
6376;SDS011;3221;48.858;10.128;2023-11-21T13:43:26;0.70;;;0.70;;
6376;SDS011;3221;48.858;10.128;2023-11-21T13:45:55;0.70;;;0.70;;
6376;SDS011;3221;48.858;10.128;2023-11-21T13:48:34;0.63;;;0.63;;
6376;SDS011;3221;48.858;10.128;2023-11-21T13:51:08;0.70;;;0.70;;
6376;SDS011;3221;48.858;10.128;2023-11-21T13:53:47;0.50;;;0.50;;
6376;SDS011;3221;48.858;10.128;2023-11-21T13:56:17;0.70;;;0.70;;
6376;SDS011;3221;48.858;10.128;2023-11-21T13:58:48;0.50;;;0.50;;
6376;SDS011;3221;48.858;10.128;2023-11-21T14:01:19;0.60;;;0.60;;
6376;SDS011;3221;48.858;10.128;2023-11-21T14:04:01;0.50;;;0.50;;
6376;SDS011;3221;48.858;10.128;2023-11-21T14:06:45;0.60;;;0.60;;
6376;SDS011;3221;48.858;10.128;2023-11-21T14:09:19;0.83;;;0.60;;
6376;SDS011;3221;48.858;10.128;2023-11-21T14:11:55;0.77;;;0.70;;
6376;SDS011;3221;48.858;10.128;2023-11-21T14:14:24;1.40;;;1.30;;
6376;SDS011;3221;48.858;10.128;2023-11-21T14:16:52;1.40;;;1.30;;
6376;SDS011;3221;48.858;10.128;2023-11-21T14:19:19;1.40;;;1.20;;
6376;SDS011;3221;48.858;10.128;2023-11-21T14:21:47;1.30;;;1.20;;
6376;SDS011;3221;48.858;10.128;2023-11-21T14:24:16;1.40;;;1.30;;
6376;SDS011;3221;48.858;10.128;2023-11-21T14:26:45;1.30;;;1.20;;
6376;SDS011;3221;48.858;10.128;2023-11-21T14:29:12;1.30;;;1.20;;
6376;SDS011;3221;48.858;10.128;2023-11-21T14:31:47;1.30;;;1.20;;
6376;SDS011;3221;48.858;10.128;2023-11-21T14:34:14;1.33;;;1.20;;
6376;SDS011;3221;48.858;10.128;2023-11-21T14:36:46;1.60;;;1.50;;
6376;SDS011;3221;48.858;10.128;2023-11-21T14:39:13;1.73;;;1.40;;
6376;SDS011;3221;48.858;10.128;2023-11-21T14:41:50;1.97;;;1.50;;
6376;SDS011;3221;48.858;10.128;2023-11-21T14:44:19;1.10;;;1.00;;
6376;SDS011;3221;48.858;10.128;2023-11-21T14:46:46;0.93;;;0.93;;
6376;SDS011;3221;48.858;10.128;2023-11-21T14:49:16;1.30;;;1.20;;
6376;SDS011;3221;48.858;10.128;2023-11-21T14:51:47;1.53;;;1.27;;
6376;SDS011;3221;48.858;10.128;2023-11-21T14:54:34;2.27;;;2.00;;
6376;SDS011;3221;48.858;10.128;2023-11-21T14:57:08;1.20;;;1.17;;
6376;SDS011;3221;48.858;10.128;2023-11-21T14:59:45;2.87;;;1.70;;
6376;SDS011;3221;48.858;10.128;2023-11-21T15:02:18;1.53;;;1.43;;
6376;SDS011;3221;48.858;10.128;2023-11-21T15:05:06;2.00;;;1.90;;
6376;SDS011;3221;48.858;10.128;2023-11-21T15:07:35;2.73;;;2.50;;
6376;SDS011;3221;48.858;10.128;2023-11-21T15:10:02;3.20;;;2.30;;
6376;SDS011;3221;48.858;10.128;2023-11-21T15:12:29;2.57;;;2.37;;
6376;SDS011;3221;48.858;10.128;2023-11-21T15:15:00;3.43;;;2.90;;
6376;SDS011;3221;48.858;10.128;2023-11-21T15:17:26;4.40;;;3.20;;
6376;SDS011;3221;48.858;10.128;2023-11-21T15:19:57;3.23;;;2.97;;
6376;SDS011;3221;48.858;10.128;2023-11-21T15:22:27;4.33;;;3.20;;
6376;SDS011;3221;48.858;10.128;2023-11-21T15:24:54;2.90;;;2.57;;
6376;SDS011;3221;48.858;10.128;2023-11-21T15:27:22;3.10;;;2.80;;
6376;SDS011;3221;48.858;10.128;2023-11-21T15:29:49;4.10;;;3.53;;
6376;SDS011;3221;48.858;10.128;2023-11-21T15:32:16;5.57;;;4.50;;
6376;SDS011;3221;48.858;10.128;2023-11-21T15:34:43;6.33;;;5.47;;